Phil Campbell, Alabama
Current Conditions -  °F | °C
As of 11:56 AM on Monday 26 Jan 2015 (Local Time) from K1M4 Reporting Station
NA  
Wind Chill: 29°   Ceiling: NA
Heat Index: 37°   Visibility: 10mi
Dew Point: 30°   Wind: 13mph
Humidity: 76%   Direction: 330°NNW
Pressure: 30.04"   Gusts: 17mph
Location:  34.35°N, 87.71°W
Report Text: K1M4 261756Z AUTO 33011G15KT 10SM 03/M01 A3004 RMK AO2 50005 T00271011 10027 20011 SLP185 $
Loading
Personal Weather Stations






























Interactive Weather Map New forecast layout! Learn more

10-Day Weather Forecast

Advertisements
Track Severe Weather on mobile